createdAt,value
2023-05-14T00:00:27.075Z,73.55
2023-05-14T00:03:14.458Z,73.92
2023-05-14T00:05:41.756Z,73.91
2023-05-14T00:08:09.040Z,73.88
2023-05-14T00:10:36.270Z,74.01
2023-05-14T00:13:03.223Z,73.94
2023-05-14T00:15:31.302Z,74.18
2023-05-14T00:18:00.152Z,74.26
2023-05-14T00:20:27.411Z,74.53
2023-05-14T00:22:54.514Z,74.53
2023-05-14T00:25:21.612Z,74.60
2023-05-14T00:27:48.716Z,74.37
2023-05-14T00:30:15.838Z,74.57
2023-05-14T00:32:43.046Z,73.81
2023-05-14T00:35:10.071Z,73.00
2023-05-14T00:37:37.131Z,73.03
2023-05-14T00:40:06.599Z,72.69
2023-05-14T00:42:34.466Z,74.58
2023-05-14T00:45:01.616Z,74.20
2023-05-14T00:47:28.664Z,73.70
2023-05-14T00:49:55.809Z,74.16
2023-05-14T00:52:22.840Z,74.37
2023-05-14T00:54:50.395Z,74.81
2023-05-14T00:57:18.273Z,74.86
2023-05-14T00:59:45.357Z,75.11
2023-05-14T01:02:12.396Z,75.25
2023-05-14T01:04:40.041Z,75.38
2023-05-14T01:07:25.923Z,75.59
2023-05-14T01:10:09.235Z,75.71
2023-05-14T01:12:50.727Z,75.50
2023-05-14T01:15:31.182Z,75.93
2023-05-14T01:18:08.236Z,75.98
2023-05-14T01:20:36.244Z,76.82
2023-05-14T01:23:03.236Z,77.30
2023-05-14T01:25:31.268Z,77.15
2023-05-14T01:28:04.258Z,76.77
2023-05-14T01:30:37.144Z,76.65
2023-05-14T01:33:12.175Z,76.67
2023-05-14T01:35:40.452Z,76.91
2023-05-14T01:38:11.111Z,76.65
2023-05-14T01:40:39.013Z,76.37
2023-05-14T01:43:06.657Z,76.25
2023-05-14T01:45:36.835Z,76.00
2023-05-14T01:48:05.537Z,76.01
2023-05-14T01:50:32.901Z,75.67
2023-05-14T01:53:00.161Z,75.68
2023-05-14T01:55:27.632Z,75.59
2023-05-14T01:57:54.852Z,75.46
2023-05-14T02:00:23.804Z,75.33
2023-05-14T02:02:51.268Z,75.26
2023-05-14T02:05:18.920Z,74.99
2023-05-14T02:07:46.781Z,74.99
2023-05-14T02:10:14.041Z,74.37
2023-05-14T02:12:41.195Z,74.52
2023-05-14T02:15:10.511Z,74.57
2023-05-14T02:17:38.311Z,74.80
2023-05-14T02:20:06.587Z,74.95
2023-05-14T02:22:33.600Z,74.95
2023-05-14T02:25:00.862Z,75.06
2023-05-14T02:27:28.369Z,75.04
2023-05-14T02:30:00.179Z,75.01
2023-05-14T02:32:27.963Z,74.83
2023-05-14T02:34:55.216Z,74.84
2023-05-14T02:37:22.386Z,74.78
2023-05-14T02:39:49.523Z,74.98
2023-05-14T02:42:16.673Z,74.25
2023-05-14T02:44:43.726Z,74.64
2023-05-14T02:47:11.404Z,75.03
2023-05-14T02:49:38.354Z,74.94
2023-05-14T02:52:05.920Z,75.06
2023-05-14T02:54:33.169Z,75.26
2023-05-14T02:57:00.332Z,75.27
2023-05-14T02:59:27.699Z,75.14
2023-05-14T03:01:55.400Z,74.96
2023-05-14T03:04:23.335Z,75.18
2023-05-14T03:06:50.795Z,75.03
2023-05-14T03:09:17.852Z,75.03
2023-05-14T03:11:44.895Z,74.87
2023-05-14T03:14:12.060Z,74.77
2023-05-14T03:16:41.750Z,74.64
2023-05-14T03:19:09.448Z,74.57
2023-05-14T03:21:36.588Z,74.59
2023-05-14T03:24:03.955Z,74.46
2023-05-14T03:26:31.006Z,74.42
2023-05-14T03:28:58.052Z,74.25
2023-05-14T03:31:25.856Z,74.26
2023-05-14T03:33:52.980Z,74.19
2023-05-14T03:36:20.342Z,74.12
2023-05-14T03:38:48.021Z,74.05
2023-05-14T03:41:17.410Z,74.11
2023-05-14T03:43:44.468Z,74.07
2023-05-14T03:46:11.724Z,73.85
2023-05-14T03:48:39.033Z,73.91
2023-05-14T03:51:06.238Z,73.80
2023-05-14T03:53:34.828Z,73.45
2023-05-14T03:56:02.009Z,73.23
2023-05-14T03:58:29.051Z,73.54
2023-05-14T04:00:56.231Z,73.54
2023-05-14T04:03:23.335Z,73.65
2023-05-14T04:05:51.116Z,73.59
2023-05-14T04:08:18.170Z,73.35
2023-05-14T04:10:45.219Z,73.43
2023-05-14T04:13:12.400Z,73.45
2023-05-14T04:15:40.373Z,73.37
2023-05-14T04:18:07.929Z,73.19
2023-05-14T04:20:35.279Z,73.37
2023-05-14T04:23:02.415Z,73.01
2023-05-14T04:25:30.096Z,72.85
2023-05-14T04:27:58.273Z,72.58
2023-05-14T04:30:26.048Z,72.31
2023-05-14T04:32:53.232Z,72.32
2023-05-14T04:35:23.287Z,72.24
2023-05-14T04:37:51.807Z,72.09
2023-05-14T04:40:19.065Z,72.02
2023-05-14T04:42:46.049Z,72.06
2023-05-14T04:45:14.132Z,71.85
2023-05-14T04:47:41.252Z,71.49
2023-05-14T04:50:09.362Z,71.67
2023-05-14T04:52:36.542Z,71.61
2023-05-14T04:55:04.147Z,71.14
2023-05-14T04:57:31.094Z,70.94
2023-05-14T04:59:58.044Z,70.66
2023-05-14T05:02:25.540Z,70.30
2023-05-14T05:04:52.770Z,70.05
2023-05-14T05:07:19.937Z,69.83
2023-05-14T05:09:47.084Z,69.46
2023-05-14T05:12:14.131Z,68.99
2023-05-14T05:14:41.309Z,68.41
2023-05-14T05:17:08.443Z,67.42
2023-05-14T05:19:43.289Z,67.67
2023-05-14T05:22:11.759Z,67.74
2023-05-14T05:24:39.125Z,67.80
2023-05-14T05:27:06.298Z,67.95
2023-05-14T05:29:34.771Z,67.74
2023-05-14T05:32:02.229Z,67.44
2023-05-14T05:34:29.502Z,67.35
2023-05-14T05:36:56.735Z,67.14
2023-05-14T05:39:24.003Z,66.87
2023-05-14T05:41:51.180Z,66.83
2023-05-14T05:44:18.245Z,66.83
2023-05-14T05:46:45.531Z,66.67
2023-05-14T05:49:12.622Z,66.30
2023-05-14T05:51:39.789Z,66.04
2023-05-14T05:54:07.036Z,65.61
2023-05-14T05:56:34.188Z,65.23
2023-05-14T05:59:01.646Z,65.09
2023-05-14T06:01:28.908Z,64.72
2023-05-14T06:03:56.684Z,64.33
2023-05-14T06:06:23.738Z,64.22
2023-05-14T06:08:50.990Z,63.44
2023-05-14T06:11:18.153Z,63.29
2023-05-14T06:13:45.192Z,62.66
2023-05-14T06:16:12.213Z,62.54
2023-05-14T06:18:39.324Z,61.92
2023-05-14T06:21:06.360Z,61.98
2023-05-14T06:23:33.326Z,61.15
2023-05-14T06:26:00.689Z,60.53
2023-05-14T06:28:28.024Z,59.87
2023-05-14T06:30:55.393Z,58.77
2023-05-14T06:33:30.220Z,57.88
2023-05-14T06:36:03.045Z,56.51
2023-05-14T06:38:30.362Z,55.89
2023-05-14T06:40:57.528Z,55.62
2023-05-14T06:43:24.782Z,54.84
2023-05-14T06:45:52.445Z,55.09
2023-05-14T06:48:20.218Z,55.03
2023-05-14T06:50:48.705Z,53.95
2023-05-14T06:53:16.191Z,54.37
2023-05-14T06:55:43.544Z,53.94
2023-05-14T06:58:10.590Z,53.62
2023-05-14T07:00:37.733Z,50.87
2023-05-14T07:03:05.066Z,50.42
2023-05-14T07:05:32.037Z,50.40
2023-05-14T07:07:59.298Z,48.45
2023-05-14T07:10:26.573Z,47.80
2023-05-14T07:12:53.907Z,48.30
2023-05-14T07:15:21.071Z,48.60
2023-05-14T07:17:48.651Z,48.91
2023-05-14T07:20:15.692Z,47.30
2023-05-14T07:22:42.951Z,48.01
2023-05-14T07:25:10.202Z,48.61
2023-05-14T07:27:37.151Z,48.41
2023-05-14T07:30:04.926Z,47.86
2023-05-14T07:32:32.201Z,48.61
2023-05-14T07:34:59.646Z,46.83
2023-05-14T07:37:26.900Z,47.07
2023-05-14T07:39:54.159Z,47.67
2023-05-14T07:42:34.472Z,46.26
2023-05-14T07:45:03.719Z,45.55
2023-05-14T07:47:31.250Z,46.73
2023-05-14T07:49:58.846Z,46.17
2023-05-14T07:52:26.107Z,46.12
2023-05-14T07:54:53.469Z,43.41
2023-05-14T07:57:21.650Z,45.64
2023-05-14T07:59:49.217Z,46.05
2023-05-14T08:02:17.278Z,45.00
2023-05-14T08:04:45.154Z,45.48
2023-05-14T08:07:12.413Z,42.20
2023-05-14T08:09:39.672Z,39.69
2023-05-14T08:12:07.835Z,41.10
2023-05-14T08:14:35.109Z,41.82
2023-05-14T08:17:02.987Z,42.90
2023-05-14T08:19:30.246Z,41.28
2023-05-14T08:21:57.312Z,42.03
2023-05-14T08:24:24.559Z,40.61
2023-05-14T08:26:52.023Z,40.09
2023-05-14T08:29:19.275Z,41.35
2023-05-14T08:31:46.940Z,40.27
2023-05-14T08:34:14.102Z,40.51
2023-05-14T08:36:41.258Z,40.35
2023-05-14T08:39:08.725Z,39.96
2023-05-14T08:41:37.195Z,39.97
2023-05-14T08:44:14.097Z,38.47
2023-05-14T08:46:41.752Z,39.53
2023-05-14T08:49:33.166Z,36.88
2023-05-14T08:52:00.207Z,36.23
2023-05-14T08:54:28.486Z,37.64
2023-05-14T08:56:55.735Z,35.53
2023-05-14T08:59:22.998Z,36.34
2023-05-14T09:01:53.668Z,37.62
2023-05-14T09:04:23.775Z,35.01
2023-05-14T09:06:55.815Z,36.27
2023-05-14T09:09:23.609Z,33.04
2023-05-14T09:11:52.707Z,34.66
2023-05-14T09:14:20.678Z,34.53
2023-05-14T09:16:49.452Z,33.84
2023-05-14T09:19:20.592Z,34.47
2023-05-14T09:21:49.560Z,33.56
2023-05-14T09:24:24.553Z,32.77
2023-05-14T09:26:56.913Z,32.92
2023-05-14T09:29:28.369Z,31.99
2023-05-14T09:31:57.403Z,32.45
2023-05-14T09:34:25.690Z,32.60
2023-05-14T09:36:59.562Z,33.32
2023-05-14T09:39:27.448Z,33.59
2023-05-14T09:41:55.811Z,32.21
2023-05-14T09:44:23.703Z,32.48
2023-05-14T09:46:51.799Z,32.36
2023-05-14T09:49:19.829Z,31.98
2023-05-14T09:51:48.728Z,30.86
2023-05-14T09:54:15.782Z,30.95
2023-05-14T09:56:44.066Z,30.10
2023-05-14T09:59:11.152Z,29.70
2023-05-14T10:01:39.088Z,29.38
2023-05-14T10:04:07.862Z,29.57
2023-05-14T10:06:39.761Z,29.59
2023-05-14T10:09:16.311Z,29.57
2023-05-14T10:11:49.196Z,31.17
2023-05-14T10:14:52.691Z,29.86
2023-05-14T10:17:21.827Z,28.48
2023-05-14T10:19:58.249Z,29.62
2023-05-14T10:22:31.448Z,29.33
2023-05-14T10:24:59.936Z,28.81
2023-05-14T10:27:27.106Z,29.91
2023-05-14T10:29:55.671Z,29.44
2023-05-14T10:32:25.417Z,29.16
2023-05-14T10:34:53.471Z,30.01
2023-05-14T10:37:25.556Z,29.48
2023-05-14T10:40:01.506Z,29.22
2023-05-14T10:42:40.108Z,28.70
2023-05-14T10:45:08.871Z,28.12
2023-05-14T10:47:42.034Z,28.13
2023-05-14T10:50:12.161Z,26.97
2023-05-14T10:52:43.062Z,28.45
2023-05-14T10:55:14.917Z,27.69
2023-05-14T10:57:44.636Z,28.20
2023-05-14T11:00:13.628Z,27.93
2023-05-14T11:02:42.765Z,28.09
2023-05-14T11:05:13.577Z,27.46
2023-05-14T11:07:46.330Z,28.09
2023-05-14T11:10:18.850Z,27.90
2023-05-14T11:12:48.659Z,27.05
2023-05-14T11:15:21.441Z,26.91
2023-05-14T11:17:49.938Z,27.11
2023-05-14T11:20:18.263Z,27.54
2023-05-14T11:22:47.624Z,27.39
2023-05-14T11:25:15.202Z,27.22
2023-05-14T11:27:43.866Z,27.32
2023-05-14T11:30:18.446Z,26.62
2023-05-14T11:32:47.593Z,26.50
2023-05-14T11:35:15.970Z,26.28
2023-05-14T11:37:43.738Z,25.27
2023-05-14T11:40:16.289Z,26.02
2023-05-14T11:42:43.384Z,25.75
2023-05-14T11:45:12.163Z,25.59
2023-05-14T11:47:41.614Z,24.69
2023-05-14T11:50:21.587Z,25.09
2023-05-14T11:52:50.314Z,25.49
2023-05-14T11:55:17.924Z,25.71
2023-05-14T11:57:45.353Z,26.33
2023-05-14T12:00:16.377Z,26.84
2023-05-14T12:02:43.857Z,26.67
2023-05-14T12:05:12.839Z,27.03
2023-05-14T12:07:41.337Z,26.78
2023-05-14T12:10:08.794Z,26.89
2023-05-14T12:12:39.425Z,26.84
2023-05-14T12:15:13.609Z,27.72
2023-05-14T12:17:40.717Z,27.75
2023-05-14T12:20:13.189Z,27.46
2023-05-14T12:22:42.181Z,27.02
2023-05-14T12:25:13.526Z,27.23
2023-05-14T12:27:44.267Z,27.81
2023-05-14T12:30:21.172Z,28.26
2023-05-14T12:32:52.200Z,28.33
2023-05-14T12:35:21.760Z,28.46
2023-05-14T12:37:48.743Z,28.56
2023-05-14T12:40:15.925Z,27.57
2023-05-14T12:42:43.169Z,28.17
2023-05-14T12:45:11.258Z,27.43
2023-05-14T12:47:38.522Z,27.92
2023-05-14T12:50:06.675Z,27.45
2023-05-14T12:52:38.631Z,27.23
2023-05-14T12:55:08.553Z,28.78
2023-05-14T12:57:36.131Z,28.28
2023-05-14T13:00:07.494Z,28.04
2023-05-14T13:02:43.054Z,27.86
2023-05-14T13:05:12.305Z,28.29
2023-05-14T13:07:39.890Z,28.53
2023-05-14T13:10:07.654Z,28.30
2023-05-14T13:12:34.716Z,28.79
2023-05-14T13:15:01.865Z,29.30
2023-05-14T13:17:29.151Z,29.32
2023-05-14T13:19:56.272Z,29.07
2023-05-14T13:22:23.220Z,29.34
2023-05-14T13:24:50.488Z,29.54
2023-05-14T13:27:17.450Z,29.70
2023-05-14T13:29:44.729Z,29.58
2023-05-14T13:32:11.847Z,30.15
2023-05-14T13:34:39.002Z,30.38
2023-05-14T13:37:06.878Z,30.20
2023-05-14T13:39:33.933Z,30.05
2023-05-14T13:42:01.194Z,30.11
2023-05-14T13:44:28.959Z,30.26
2023-05-14T13:46:56.318Z,30.03
2023-05-14T13:49:23.477Z,29.92
2023-05-14T13:51:50.738Z,30.51
2023-05-14T13:54:17.885Z,30.47
2023-05-14T13:56:45.059Z,30.85
2023-05-14T13:59:12.209Z,31.17
2023-05-14T14:01:39.492Z,31.39
2023-05-14T14:04:06.516Z,31.69
2023-05-14T14:06:33.665Z,31.69
2023-05-14T14:09:00.927Z,31.44
2023-05-14T14:11:28.248Z,31.49
2023-05-14T14:13:55.349Z,31.65
2023-05-14T14:16:22.543Z,32.18
2023-05-14T14:18:49.898Z,32.31
2023-05-14T14:21:17.620Z,32.46
2023-05-14T14:23:48.079Z,32.55
2023-05-14T14:26:15.308Z,32.74
2023-05-14T14:28:42.568Z,32.79
2023-05-14T14:31:10.455Z,32.79
2023-05-14T14:33:37.708Z,33.20
2023-05-14T14:36:05.575Z,33.80
2023-05-14T14:38:32.646Z,33.96
2023-05-14T14:41:02.564Z,34.36
2023-05-14T14:43:29.603Z,35.04
2023-05-14T14:45:57.325Z,34.87
2023-05-14T14:48:27.429Z,35.38
2023-05-14T14:50:55.151Z,35.64
2023-05-14T14:53:23.556Z,35.39
2023-05-14T14:55:51.038Z,36.40
2023-05-14T14:58:19.898Z,35.80
2023-05-14T15:00:47.905Z,36.05
2023-05-14T15:03:15.392Z,35.68
2023-05-14T15:05:42.713Z,35.97
2023-05-14T15:08:10.164Z,35.91
2023-05-14T15:10:37.924Z,35.98
2023-05-14T15:13:06.417Z,35.88
2023-05-14T15:15:34.816Z,35.94
2023-05-14T15:18:03.348Z,35.95
2023-05-14T15:20:30.759Z,36.22
2023-05-14T15:22:57.805Z,36.47
2023-05-14T15:25:26.971Z,36.22
2023-05-14T15:27:54.576Z,36.17
2023-05-14T15:30:21.725Z,36.26
2023-05-14T15:32:49.352Z,36.37
2023-05-14T15:35:16.663Z,36.52
2023-05-14T15:37:44.829Z,36.52
2023-05-14T15:40:12.705Z,36.65
2023-05-14T15:42:41.697Z,36.59
2023-05-14T15:45:11.782Z,36.88
2023-05-14T15:47:40.115Z,37.24
2023-05-14T15:50:08.077Z,37.01
2023-05-14T15:52:38.921Z,37.08
2023-05-14T15:55:06.544Z,37.46
2023-05-14T15:57:34.425Z,37.51
2023-05-14T16:00:09.431Z,37.67
2023-05-14T16:02:39.811Z,37.72
2023-05-14T16:05:08.068Z,38.60
2023-05-14T16:07:35.872Z,39.15
2023-05-14T16:10:03.247Z,39.19
2023-05-14T16:12:30.412Z,39.19
2023-05-14T16:14:57.619Z,39.28
2023-05-14T16:17:26.953Z,38.88
2023-05-14T16:19:56.056Z,39.13
2023-05-14T16:22:23.610Z,38.67
2023-05-14T16:24:50.869Z,38.52
2023-05-14T16:27:20.899Z,39.15
2023-05-14T16:29:48.143Z,39.38
2023-05-14T16:32:15.556Z,39.19
2023-05-14T16:34:49.112Z,38.93
2023-05-14T16:37:20.061Z,39.41
2023-05-14T16:39:48.224Z,40.07
2023-05-14T16:42:15.182Z,40.30
2023-05-14T16:44:42.329Z,40.63
2023-05-14T16:47:10.010Z,40.57
2023-05-14T16:49:37.289Z,40.55
2023-05-14T16:52:05.028Z,40.62
2023-05-14T16:54:32.078Z,40.82
2023-05-14T16:56:59.225Z,41.29
2023-05-14T16:59:26.384Z,42.83
2023-05-14T17:01:53.642Z,44.30
2023-05-14T17:04:20.947Z,45.70
2023-05-14T17:06:48.159Z,47.59
2023-05-14T17:09:16.136Z,48.53
2023-05-14T17:11:44.118Z,49.72
2023-05-14T17:14:10.543Z,49.22
2023-05-14T17:16:40.058Z,50.46
2023-05-14T17:19:06.528Z,52.55
2023-05-14T17:21:33.739Z,53.81
2023-05-14T17:24:00.887Z,53.15
2023-05-14T17:26:27.856Z,54.18
2023-05-14T17:28:55.221Z,54.97
2023-05-14T17:31:22.722Z,55.28
2023-05-14T17:33:50.244Z,55.35
2023-05-14T17:36:17.296Z,55.72
2023-05-14T17:38:44.469Z,56.38
2023-05-14T17:41:11.915Z,56.82
2023-05-14T17:43:38.969Z,57.54
2023-05-14T17:46:06.758Z,57.73
2023-05-14T17:48:33.860Z,57.77
2023-05-14T17:51:00.962Z,58.41
2023-05-14T17:53:28.106Z,58.72
2023-05-14T17:55:55.219Z,58.85
2023-05-14T17:58:22.429Z,59.23
2023-05-14T18:00:49.426Z,59.54
2023-05-14T18:03:17.144Z,59.68
2023-05-14T18:05:44.312Z,59.72
2023-05-14T18:08:11.778Z,59.34
2023-05-14T18:10:40.253Z,59.10
2023-05-14T18:13:07.522Z,59.15
2023-05-14T18:15:36.271Z,58.86
2023-05-14T18:18:03.572Z,58.69
2023-05-14T18:20:31.173Z,58.03
2023-05-14T18:22:59.372Z,57.92
2023-05-14T18:25:26.782Z,58.01
2023-05-14T18:27:54.010Z,57.51
2023-05-14T18:30:21.187Z,57.31
2023-05-14T18:32:48.288Z,56.84
2023-05-14T18:35:15.310Z,56.30
2023-05-14T18:37:42.347Z,56.07
2023-05-14T18:40:10.666Z,55.79
2023-05-14T18:42:37.784Z,55.47
2023-05-14T18:45:05.352Z,55.23
2023-05-14T18:47:33.132Z,55.12
2023-05-14T18:50:01.546Z,54.95
2023-05-14T18:52:28.968Z,54.94
2023-05-14T18:54:56.121Z,55.00
2023-05-14T18:57:23.702Z,54.83
2023-05-14T18:59:50.967Z,54.50
2023-05-14T19:02:18.172Z,54.16
2023-05-14T19:04:52.427Z,53.73
2023-05-14T19:07:20.942Z,53.42
2023-05-14T19:09:48.475Z,53.12
2023-05-14T19:12:15.936Z,52.87
2023-05-14T19:14:43.213Z,52.74
2023-05-14T19:17:10.800Z,52.57
2023-05-14T19:19:38.830Z,52.47
2023-05-14T19:22:06.622Z,52.42
2023-05-14T19:24:33.554Z,52.24
2023-05-14T19:27:01.124Z,51.95
2023-05-14T19:29:28.384Z,51.66
2023-05-14T19:31:55.479Z,51.58
2023-05-14T19:34:22.592Z,51.40
2023-05-14T19:36:50.245Z,51.18
2023-05-14T19:39:17.308Z,51.00
2023-05-14T19:41:44.552Z,50.98
2023-05-14T19:44:11.608Z,50.89
2023-05-14T19:46:38.909Z,50.73
2023-05-14T19:49:06.025Z,50.56
2023-05-14T19:51:33.076Z,50.44
2023-05-14T19:54:00.741Z,50.29
2023-05-14T19:56:28.046Z,50.24
2023-05-14T19:58:55.157Z,50.10
2023-05-14T20:01:22.431Z,50.17
2023-05-14T20:03:49.476Z,50.08
2023-05-14T20:06:16.950Z,49.95
2023-05-14T20:08:47.085Z,49.87
2023-05-14T20:11:15.237Z,49.75
2023-05-14T20:13:42.380Z,49.49
2023-05-14T20:16:09.755Z,49.57
2023-05-14T20:18:37.118Z,49.39
2023-05-14T20:21:05.096Z,49.21
2023-05-14T20:23:32.350Z,48.99
2023-05-14T20:26:01.234Z,48.60
2023-05-14T20:28:28.397Z,48.50
2023-05-14T20:30:58.365Z,47.99
2023-05-14T20:33:26.592Z,48.20
2023-05-14T20:35:53.861Z,47.99
2023-05-14T20:38:21.441Z,47.87
2023-05-14T20:40:48.680Z,47.71
2023-05-14T20:43:15.932Z,47.13
2023-05-14T20:45:42.854Z,46.97
2023-05-14T20:48:11.701Z,46.95
2023-05-14T20:50:38.946Z,46.79
2023-05-14T20:53:06.095Z,46.76
2023-05-14T20:55:33.454Z,46.64
2023-05-14T20:58:00.506Z,46.44
2023-05-14T21:00:27.556Z,46.43
2023-05-14T21:02:54.633Z,46.08
2023-05-14T21:05:21.972Z,46.08
2023-05-14T21:07:48.921Z,46.18
2023-05-14T21:10:16.691Z,46.20
2023-05-14T21:12:44.902Z,46.30
2023-05-14T21:15:12.353Z,46.13
2023-05-14T21:17:39.758Z,46.04
2023-05-14T21:20:07.839Z,45.93
2023-05-14T21:22:35.139Z,45.77
2023-05-14T21:25:02.494Z,45.63
2023-05-14T21:27:29.623Z,45.65
2023-05-14T21:29:56.694Z,45.60
2023-05-14T21:32:23.928Z,45.30
2023-05-14T21:34:51.230Z,45.34
2023-05-14T21:37:18.367Z,45.19
2023-05-14T21:39:45.524Z,45.06
2023-05-14T21:42:12.780Z,45.02
2023-05-14T21:44:39.842Z,44.90
2023-05-14T21:47:07.301Z,44.91
2023-05-14T21:49:35.076Z,44.75
2023-05-14T21:52:02.322Z,44.75
2023-05-14T21:54:29.576Z,44.76
2023-05-14T21:56:56.954Z,44.74
2023-05-14T21:59:24.308Z,44.54
2023-05-14T22:02:06.260Z,44.58
2023-05-14T22:04:34.779Z,44.33
2023-05-14T22:07:01.832Z,44.45
2023-05-14T22:09:29.918Z,44.45
2023-05-14T22:11:57.887Z,44.36
2023-05-14T22:14:26.725Z,44.39
2023-05-14T22:16:53.933Z,45.35
2023-05-14T22:19:21.813Z,45.62
2023-05-14T22:21:48.757Z,45.93
2023-05-14T22:24:15.914Z,46.40
2023-05-14T22:26:43.479Z,46.95
2023-05-14T22:29:10.739Z,47.03
2023-05-14T22:31:38.282Z,46.86
2023-05-14T22:34:05.355Z,47.05
2023-05-14T22:36:32.509Z,47.10
2023-05-14T22:38:59.798Z,46.82
2023-05-14T22:41:27.230Z,46.77
2023-05-14T22:43:54.177Z,46.61
2023-05-14T22:46:21.388Z,46.63
2023-05-14T22:48:48.800Z,46.62
2023-05-14T22:51:16.121Z,46.52
2023-05-14T22:53:43.218Z,46.64
2023-05-14T22:56:10.572Z,46.54
2023-05-14T22:58:37.635Z,46.56
2023-05-14T23:01:04.817Z,46.42
2023-05-14T23:03:31.885Z,46.39
2023-05-14T23:05:58.977Z,46.22
2023-05-14T23:08:25.953Z,46.06
2023-05-14T23:10:53.305Z,45.88
2023-05-14T23:13:20.657Z,45.82
2023-05-14T23:15:48.329Z,45.68
2023-05-14T23:18:15.577Z,45.69
2023-05-14T23:20:43.257Z,45.57
2023-05-14T23:23:10.719Z,45.45
2023-05-14T23:25:37.798Z,45.36
2023-05-14T23:28:05.125Z,45.26
2023-05-14T23:30:32.290Z,45.20
2023-05-14T23:32:59.741Z,45.13
2023-05-14T23:35:27.455Z,45.02
2023-05-14T23:37:54.771Z,44.71
2023-05-14T23:40:21.828Z,44.52
2023-05-14T23:42:48.988Z,44.65
2023-05-14T23:45:16.614Z,44.66
2023-05-14T23:47:44.081Z,44.58
2023-05-14T23:50:11.174Z,44.69
2023-05-14T23:52:38.322Z,44.28
2023-05-14T23:55:06.193Z,44.45
2023-05-14T23:57:33.446Z,44.34
